createdAt,value
2018-06-25T00:01:30.949Z,80.94
2018-06-25T00:03:58.916Z,80.00
2018-06-25T00:06:26.937Z,79.54
2018-06-25T00:08:54.974Z,80.35
2018-06-25T00:11:23.065Z,80.67
2018-06-25T00:13:51.073Z,81.08
2018-06-25T00:16:19.093Z,81.10
2018-06-25T00:18:47.088Z,79.34
2018-06-25T00:21:15.082Z,80.08
2018-06-25T00:23:43.085Z,78.69
2018-06-25T00:26:11.124Z,79.32
2018-06-25T00:28:39.176Z,79.27
2018-06-25T00:31:07.197Z,80.23
2018-06-25T00:33:35.187Z,80.31
2018-06-25T00:36:03.188Z,80.80
2018-06-25T00:38:31.194Z,80.59
2018-06-25T00:40:59.184Z,79.89
2018-06-25T00:43:27.196Z,80.30
2018-06-25T00:45:55.197Z,80.41
2018-06-25T00:48:23.196Z,81.39
2018-06-25T00:50:51.176Z,80.86
2018-06-25T00:53:19.177Z,80.70
2018-06-25T00:55:47.223Z,81.66
2018-06-25T00:58:15.266Z,81.44
2018-06-25T01:00:43.236Z,82.41
2018-06-25T01:03:11.256Z,81.76
2018-06-25T01:05:39.258Z,80.64
2018-06-25T01:08:07.305Z,80.13
2018-06-25T01:10:35.296Z,79.63
2018-06-25T01:13:03.313Z,78.99
2018-06-25T01:15:31.308Z,79.45
2018-06-25T01:17:59.308Z,78.50
2018-06-25T01:20:27.968Z,78.91
2018-06-25T01:22:55.965Z,78.15
2018-06-25T01:25:23.952Z,79.02
2018-06-25T01:27:51.968Z,79.09
2018-06-25T01:30:19.965Z,78.05
2018-06-25T01:32:47.980Z,78.45
2018-06-25T01:35:15.988Z,78.00
2018-06-25T01:37:44.017Z,78.32
2018-06-25T01:40:12.016Z,79.20
2018-06-25T01:42:40.001Z,78.80
2018-06-25T01:45:07.985Z,78.79
2018-06-25T01:47:35.968Z,78.05
2018-06-25T01:50:03.989Z,78.09
2018-06-25T01:52:31.992Z,78.56
2018-06-25T01:55:00.052Z,78.57
2018-06-25T01:57:28.057Z,78.67
2018-06-25T01:59:56.064Z,79.53
2018-06-25T02:02:24.044Z,79.62
2018-06-25T02:04:52.049Z,79.49
2018-06-25T02:07:20.080Z,80.06
2018-06-25T02:09:48.111Z,79.95
2018-06-25T02:12:16.102Z,80.69
2018-06-25T02:14:44.313Z,81.33
2018-06-25T02:17:12.338Z,81.21
2018-06-25T02:19:40.329Z,81.03
2018-06-25T02:22:08.312Z,81.28
2018-06-25T02:24:36.313Z,81.41
2018-06-25T02:27:04.336Z,82.44
2018-06-25T02:29:33.168Z,81.96
2018-06-25T02:32:01.183Z,82.19
2018-06-25T02:34:29.249Z,81.47
2018-06-25T02:36:57.296Z,81.66
2018-06-25T02:39:25.317Z,81.96
2018-06-25T02:41:53.310Z,81.93
2018-06-25T02:44:21.349Z,80.84
2018-06-25T02:46:49.372Z,81.89
2018-06-25T02:49:17.404Z,81.84
2018-06-25T02:51:45.381Z,81.29
2018-06-25T02:54:13.380Z,81.61
2018-06-25T02:56:41.387Z,82.32
2018-06-25T02:59:09.529Z,81.93
2018-06-25T03:01:37.470Z,80.93
2018-06-25T03:04:05.598Z,81.19
2018-06-25T03:06:33.593Z,80.54
2018-06-25T03:09:01.588Z,80.37
2018-06-25T03:11:29.577Z,80.26
2018-06-25T03:13:57.599Z,80.11
2018-06-25T03:16:25.665Z,81.08
2018-06-25T03:21:33.124Z,81.06
2018-06-25T03:24:01.129Z,82.29
2018-06-25T03:26:29.352Z,82.19
2018-06-25T03:28:57.381Z,82.03
2018-06-25T03:31:25.388Z,81.33
2018-06-25T03:33:53.413Z,81.43
2018-06-25T03:36:21.443Z,81.75
2018-06-25T03:38:49.443Z,82.34
2018-06-25T03:41:17.430Z,82.52
2018-06-25T03:43:45.481Z,82.27
2018-06-25T03:46:13.489Z,82.18
2018-06-25T03:48:41.534Z,82.05
2018-06-25T03:51:09.546Z,81.80
2018-06-25T03:53:37.552Z,81.89
2018-06-25T03:56:05.607Z,82.56
2018-06-25T03:58:33.621Z,82.41
2018-06-25T04:01:01.676Z,82.62
2018-06-25T04:03:29.656Z,82.18
2018-06-25T04:05:57.890Z,81.66
2018-06-25T04:08:25.932Z,82.04
2018-06-25T04:10:53.965Z,81.07
2018-06-25T04:13:22.058Z,81.96
2018-06-25T04:15:50.062Z,81.13
2018-06-25T04:18:18.212Z,81.10
2018-06-25T04:20:46.301Z,80.57
2018-06-25T04:23:14.278Z,80.17
2018-06-25T04:25:42.296Z,80.64
2018-06-25T04:28:10.291Z,81.59
2018-06-25T04:30:38.319Z,81.99
2018-06-25T04:33:06.300Z,82.06
2018-06-25T04:35:34.308Z,81.70
2018-06-25T04:38:02.461Z,81.62
2018-06-25T04:40:30.485Z,81.91
2018-06-25T04:42:58.473Z,82.21
2018-06-25T04:45:26.501Z,81.06
2018-06-25T04:47:54.525Z,80.72
2018-06-25T04:50:22.543Z,80.55
2018-06-25T04:52:50.546Z,80.23
2018-06-25T04:55:18.548Z,80.57
2018-06-25T04:57:46.532Z,79.38
2018-06-25T05:00:14.572Z,79.65
2018-06-25T05:02:42.619Z,79.58
2018-06-25T05:05:10.621Z,80.16
2018-06-25T05:07:38.593Z,79.50
2018-06-25T05:10:06.604Z,78.98
2018-06-25T05:12:34.581Z,78.31
2018-06-25T05:15:02.688Z,78.47
2018-06-25T05:17:30.733Z,77.21
2018-06-25T05:19:58.804Z,77.05
2018-06-25T05:22:26.839Z,77.12
2018-06-25T05:24:54.921Z,77.31
2018-06-25T05:27:23.030Z,77.58
2018-06-25T05:29:51.195Z,76.81
2018-06-25T05:32:19.225Z,76.05
2018-06-25T05:34:47.224Z,75.88
2018-06-25T05:37:15.245Z,76.10
2018-06-25T05:39:43.286Z,76.29
2018-06-25T05:42:15.464Z,75.40
2018-06-25T05:44:43.501Z,75.58
2018-06-25T05:47:11.530Z,75.14
2018-06-25T05:49:39.539Z,76.05
2018-06-25T05:52:07.716Z,75.70
2018-06-25T05:54:35.764Z,75.56
2018-06-25T05:57:03.755Z,76.07
2018-06-25T05:59:31.766Z,77.08
2018-06-25T06:01:59.773Z,77.01
2018-06-25T06:04:27.794Z,76.47
2018-06-25T06:06:55.798Z,76.33
2018-06-25T06:09:23.809Z,76.88
2018-06-25T06:11:51.844Z,77.65
2018-06-25T06:14:19.837Z,76.98
2018-06-25T06:16:47.841Z,77.51
2018-06-25T06:19:15.824Z,78.32
2018-06-25T06:21:43.826Z,78.79
2018-06-25T06:24:11.826Z,78.45
2018-06-25T06:26:39.845Z,78.09
2018-06-25T06:29:07.864Z,76.91
2018-06-25T06:31:35.916Z,75.95
2018-06-25T06:34:03.942Z,76.03
2018-06-25T06:36:31.970Z,75.55
2018-06-25T06:38:59.975Z,75.73
2018-06-25T06:41:27.993Z,75.89
2018-06-25T06:43:56.022Z,76.62
2018-06-25T06:46:24.052Z,77.43
2018-06-25T06:48:52.040Z,77.13
2018-06-25T06:51:20.045Z,76.79
2018-06-25T06:53:48.030Z,76.43
2018-06-25T06:56:16.077Z,76.52
2018-06-25T06:58:44.098Z,76.73
2018-06-25T07:01:12.114Z,77.29
2018-06-25T07:03:40.101Z,76.66
2018-06-25T07:06:08.147Z,76.33
2018-06-25T07:08:36.148Z,75.83
2018-06-25T07:11:04.469Z,76.14
2018-06-25T07:13:33.761Z,75.86
2018-06-25T07:16:01.834Z,76.75
2018-06-25T07:18:29.821Z,75.90
2018-06-25T07:20:57.804Z,74.40
2018-06-25T07:23:25.794Z,73.00
2018-06-25T07:25:53.805Z,72.30
2018-06-25T07:28:21.965Z,71.43
2018-06-25T07:30:50.020Z,71.60
2018-06-25T07:33:18.009Z,71.99
2018-06-25T07:35:46.013Z,70.86
2018-06-25T07:38:14.051Z,69.95
2018-06-25T07:40:42.045Z,69.77
2018-06-25T07:43:10.402Z,68.28
2018-06-25T07:45:39.070Z,65.98
2018-06-25T07:48:07.077Z,65.30
2018-06-25T07:50:35.065Z,66.09
2018-06-25T07:53:03.112Z,66.76
2018-06-25T07:55:31.105Z,65.64
2018-06-25T07:57:59.109Z,65.53
2018-06-25T08:00:27.090Z,65.74
2018-06-25T08:02:55.089Z,66.42
2018-06-25T08:05:23.078Z,66.43
2018-06-25T08:07:51.131Z,66.10
2018-06-25T08:10:19.210Z,65.69
2018-06-25T08:12:47.930Z,65.28
2018-06-25T08:15:15.940Z,65.90
2018-06-25T08:17:43.965Z,65.37
2018-06-25T08:20:12.105Z,66.65
2018-06-25T08:22:40.150Z,66.56
2018-06-25T08:25:08.147Z,66.77
2018-06-25T08:27:36.179Z,67.64
2018-06-25T08:30:04.807Z,66.09
2018-06-25T08:32:32.801Z,67.36
2018-06-25T08:35:00.797Z,67.35
2018-06-25T08:37:29.372Z,68.10
2018-06-25T08:39:57.385Z,67.55
2018-06-25T08:42:25.380Z,68.37
2018-06-25T08:44:53.388Z,67.51
2018-06-25T08:47:21.404Z,68.68
2018-06-25T08:49:49.412Z,69.02
2018-06-25T08:52:17.419Z,69.13
2018-06-25T08:54:45.437Z,68.70
2018-06-25T08:57:13.441Z,68.63
2018-06-25T08:59:41.424Z,69.46
2018-06-25T09:02:09.416Z,67.98
2018-06-25T09:04:37.433Z,69.22
2018-06-25T09:07:05.475Z,69.18
2018-06-25T09:09:33.545Z,67.95
2018-06-25T09:12:01.478Z,68.15
2018-06-25T09:14:29.488Z,67.51
2018-06-25T09:16:57.600Z,68.36
2018-06-25T09:19:25.606Z,66.97
2018-06-25T09:21:53.667Z,67.10
2018-06-25T09:24:21.666Z,66.40
2018-06-25T09:26:49.661Z,66.00
2018-06-25T09:29:17.665Z,64.78
2018-06-25T09:31:45.753Z,64.85
2018-06-25T09:34:19.219Z,65.19
2018-06-25T09:36:47.207Z,64.81
2018-06-25T09:39:15.298Z,63.79
2018-06-25T09:41:43.613Z,64.80
2018-06-25T09:44:11.748Z,64.30
2018-06-25T09:46:40.037Z,63.49
2018-06-25T09:49:08.049Z,62.85
2018-06-25T09:51:36.061Z,62.41
2018-06-25T09:54:04.081Z,63.19
2018-06-25T09:56:32.089Z,64.44
2018-06-25T09:59:00.106Z,64.21
2018-06-25T10:01:28.152Z,64.61
2018-06-25T10:03:56.151Z,65.46
2018-06-25T10:06:24.145Z,66.25
2018-06-25T10:08:52.175Z,66.54
2018-06-25T10:11:20.189Z,65.98
2018-06-25T10:13:48.216Z,65.92
2018-06-25T10:16:16.209Z,66.19
2018-06-25T10:18:44.249Z,67.25
2018-06-25T10:21:12.487Z,66.98
2018-06-25T10:23:40.444Z,66.81
2018-06-25T10:26:08.761Z,66.44
2018-06-25T10:28:37.295Z,65.61
2018-06-25T10:31:05.309Z,63.48
2018-06-25T10:33:33.349Z,64.39
2018-06-25T10:36:01.344Z,63.43
2018-06-25T10:38:29.385Z,62.88
2018-06-25T10:40:57.409Z,63.63
2018-06-25T10:43:25.453Z,62.88
2018-06-25T10:45:53.451Z,63.75
2018-06-25T10:48:21.432Z,64.34
2018-06-25T10:50:49.446Z,64.17
2018-06-25T10:53:17.477Z,64.00
2018-06-25T10:55:45.493Z,64.71
2018-06-25T10:58:13.568Z,65.39
2018-06-25T11:00:41.673Z,65.28
2018-06-25T11:03:09.692Z,64.88
2018-06-25T11:05:37.720Z,63.26
2018-06-25T11:08:05.795Z,61.97
2018-06-25T11:10:33.826Z,61.48
2018-06-25T11:13:01.897Z,61.22
2018-06-25T11:15:29.857Z,61.78
2018-06-25T11:17:57.864Z,60.92
2018-06-25T11:20:25.941Z,61.04
2018-06-25T11:22:53.936Z,61.30
2018-06-25T11:25:21.960Z,61.31
2018-06-25T11:27:50.024Z,61.12
2018-06-25T11:30:18.012Z,61.00
2018-06-25T11:32:47.135Z,62.10
2018-06-25T11:35:15.151Z,61.30
2018-06-25T11:37:43.256Z,59.68
2018-06-25T11:40:11.269Z,60.22
2018-06-25T11:42:39.304Z,58.26
2018-06-25T11:45:07.404Z,60.33
2018-06-25T11:47:35.440Z,60.28
2018-06-25T11:50:03.473Z,61.11
2018-06-25T11:52:31.497Z,59.42
2018-06-25T11:54:59.529Z,60.09
2018-06-25T11:57:27.536Z,59.46
2018-06-25T11:59:55.575Z,60.45
2018-06-25T12:02:23.582Z,58.23
2018-06-25T12:04:51.590Z,58.75
2018-06-25T12:07:19.756Z,58.38
2018-06-25T12:09:47.832Z,59.14
2018-06-25T12:12:15.854Z,59.31
2018-06-25T12:14:43.941Z,59.02
2018-06-25T12:17:12.043Z,59.97
2018-06-25T12:19:40.468Z,60.10
2018-06-25T12:22:08.966Z,60.50
2018-06-25T12:24:37.669Z,59.33
2018-06-25T12:27:05.796Z,58.45
2018-06-25T12:29:33.891Z,58.70
2018-06-25T12:32:02.075Z,57.03
2018-06-25T12:34:30.003Z,57.94
2018-06-25T12:36:58.140Z,58.06
2018-06-25T12:39:26.200Z,58.08
2018-06-25T12:41:54.299Z,56.78
2018-06-25T12:44:22.309Z,57.60
2018-06-25T12:46:50.336Z,57.86
2018-06-25T12:49:18.956Z,56.85
2018-06-25T12:51:46.978Z,54.57
2018-06-25T12:54:14.991Z,54.92
2018-06-25T12:56:43.052Z,54.00
2018-06-25T12:59:11.068Z,54.04
2018-06-25T13:01:39.080Z,52.84
2018-06-25T13:04:07.076Z,52.67
2018-06-25T13:06:35.082Z,53.07
2018-06-25T13:09:03.160Z,52.33
2018-06-25T13:11:31.362Z,52.06
2018-06-25T13:13:59.365Z,51.95
2018-06-25T13:16:27.376Z,51.20
2018-06-25T13:18:55.596Z,50.55
2018-06-25T13:21:24.016Z,51.84
2018-06-25T13:23:52.035Z,52.10
2018-06-25T13:26:20.118Z,51.27
2018-06-25T13:28:48.124Z,52.57
2018-06-25T13:31:16.238Z,51.94
2018-06-25T13:33:44.130Z,51.25
2018-06-25T13:36:12.133Z,52.38
2018-06-25T13:38:40.140Z,51.86
2018-06-25T13:41:08.153Z,52.40
2018-06-25T13:43:36.143Z,52.13
2018-06-25T13:46:04.212Z,50.25
2018-06-25T13:48:32.256Z,49.02
2018-06-25T13:51:00.265Z,50.39
2018-06-25T13:53:28.276Z,49.09
2018-06-25T13:55:56.285Z,48.11
2018-06-25T13:58:24.287Z,49.63
2018-06-25T14:00:52.364Z,50.71
2018-06-25T14:03:20.389Z,50.76
2018-06-25T14:05:48.505Z,48.96
2018-06-25T14:08:16.505Z,48.67
2018-06-25T14:10:44.474Z,48.17
2018-06-25T14:13:12.536Z,50.72
2018-06-25T14:15:40.560Z,50.53
2018-06-25T14:18:08.731Z,51.14
2018-06-25T14:20:36.727Z,50.38
2018-06-25T14:23:04.794Z,51.10
2018-06-25T14:25:38.103Z,49.58
2018-06-25T14:28:11.695Z,47.73
2018-06-25T14:30:45.066Z,46.94
2018-06-25T14:33:13.073Z,45.63
2018-06-25T14:35:41.068Z,46.90
2018-06-25T14:38:09.100Z,44.78
2018-06-25T14:40:37.159Z,44.84
2018-06-25T14:43:05.241Z,44.16
2018-06-25T14:45:33.241Z,45.30
2018-06-25T14:48:01.319Z,45.52
2018-06-25T14:50:29.300Z,45.87
2018-06-25T14:52:57.336Z,46.01
2018-06-25T14:55:25.399Z,43.90
2018-06-25T14:57:53.458Z,45.59
2018-06-25T15:00:22.037Z,44.13
2018-06-25T15:02:51.233Z,44.43
2018-06-25T15:05:19.264Z,44.82
2018-06-25T15:07:47.411Z,44.52
2018-06-25T15:10:15.438Z,46.07
2018-06-25T15:12:43.497Z,47.25
2018-06-25T15:15:11.505Z,46.70
2018-06-25T15:17:39.558Z,47.49
2018-06-25T15:20:07.617Z,47.57
2018-06-25T15:22:35.692Z,47.15
2018-06-25T15:25:03.716Z,48.89
2018-06-25T15:27:31.708Z,46.15
2018-06-25T15:29:59.800Z,46.34
2018-06-25T15:32:30.475Z,46.96
2018-06-25T15:34:58.649Z,47.55
2018-06-25T15:37:26.809Z,47.14
2018-06-25T15:39:54.822Z,48.25
2018-06-25T15:42:22.829Z,47.43
2018-06-25T15:44:50.879Z,48.18
2018-06-25T15:47:18.993Z,47.70
2018-06-25T15:49:47.037Z,46.89
2018-06-25T15:52:15.137Z,47.05
2018-06-25T15:54:43.192Z,46.84
2018-06-25T15:57:11.217Z,46.65
2018-06-25T15:59:39.281Z,48.18
2018-06-25T16:02:07.279Z,47.63
2018-06-25T16:04:35.285Z,50.40
2018-06-25T16:07:03.648Z,50.06
2018-06-25T16:09:31.877Z,51.38
2018-06-25T16:11:59.875Z,52.07
2018-06-25T16:14:28.277Z,52.09
2018-06-25T16:16:56.486Z,52.02
2018-06-25T16:19:24.527Z,52.40
2018-06-25T16:21:52.612Z,53.79
2018-06-25T16:24:20.658Z,53.78
2018-06-25T16:26:48.776Z,54.58
2018-06-25T16:29:16.765Z,56.29
2018-06-25T16:31:44.771Z,56.14
2018-06-25T16:34:12.951Z,56.56
2018-06-25T16:36:41.046Z,55.66
2018-06-25T16:39:11.168Z,56.11
2018-06-25T16:41:39.376Z,57.53
2018-06-25T16:44:07.613Z,55.96
2018-06-25T16:46:35.920Z,55.76
2018-06-25T16:49:04.083Z,57.05
2018-06-25T16:51:32.231Z,57.90
2018-06-25T16:54:00.244Z,57.95
2018-06-25T16:56:28.284Z,58.74
2018-06-25T16:58:56.356Z,57.98
2018-06-25T17:01:24.356Z,59.15
2018-06-25T17:03:52.336Z,59.85
2018-06-25T17:06:20.329Z,61.03
2018-06-25T17:08:48.367Z,60.31
2018-06-25T17:11:16.690Z,61.39
2018-06-25T17:13:44.685Z,60.47
2018-06-25T17:16:12.741Z,61.11
2018-06-25T17:18:40.768Z,60.70
2018-06-25T17:21:08.933Z,60.29
2018-06-25T17:23:36.955Z,61.72
2018-06-25T17:26:05.276Z,61.38
2018-06-25T17:28:33.302Z,61.41
2018-06-25T17:31:01.288Z,62.11
2018-06-25T17:33:29.276Z,62.19
2018-06-25T17:35:57.303Z,62.27
2018-06-25T17:38:25.280Z,62.71
2018-06-25T17:40:53.253Z,63.18
2018-06-25T17:43:22.340Z,62.88
2018-06-25T17:45:50.327Z,64.02
2018-06-25T17:48:18.426Z,64.89
2018-06-25T17:50:46.493Z,66.15
2018-06-25T17:53:14.521Z,66.53
2018-06-25T17:55:42.649Z,67.22
2018-06-25T17:58:10.686Z,66.60
2018-06-25T18:00:38.707Z,67.95
2018-06-25T18:03:06.737Z,67.61
2018-06-25T18:05:34.765Z,67.85
2018-06-25T18:08:02.876Z,67.50
2018-06-25T18:10:30.948Z,67.29
2018-06-25T18:12:59.617Z,67.26
2018-06-25T18:15:27.685Z,66.74
2018-06-25T18:17:55.716Z,66.74
2018-06-25T18:20:23.749Z,67.08
2018-06-25T18:22:51.779Z,68.04
2018-06-25T18:25:19.907Z,68.33
2018-06-25T18:27:47.974Z,68.61
2018-06-25T18:30:16.026Z,68.47
2018-06-25T18:32:44.048Z,68.92
2018-06-25T18:35:12.038Z,68.78
2018-06-25T18:37:40.115Z,68.98
2018-06-25T18:40:08.581Z,69.17
2018-06-25T18:42:36.648Z,69.71
2018-06-25T18:45:04.953Z,69.66
2018-06-25T18:47:33.040Z,71.31
2018-06-25T18:50:01.165Z,70.97
2018-06-25T18:52:29.165Z,70.67
2018-06-25T18:54:57.165Z,72.61
2018-06-25T18:57:25.261Z,73.39
2018-06-25T18:59:53.442Z,73.12
2018-06-25T19:02:21.512Z,73.71
2018-06-25T19:04:49.585Z,73.26
2018-06-25T19:07:17.697Z,73.56
2018-06-25T19:09:45.748Z,73.90
2018-06-25T19:12:13.845Z,73.93
2018-06-25T19:14:41.997Z,74.58
2018-06-25T19:17:09.997Z,73.85
2018-06-25T19:19:38.006Z,73.98
2018-06-25T19:22:06.236Z,74.00
2018-06-25T19:24:34.253Z,74.38
2018-06-25T19:27:02.318Z,74.07
2018-06-25T19:29:30.341Z,74.18
2018-06-25T19:31:58.325Z,73.91
2018-06-25T19:34:26.318Z,73.90
2018-06-25T19:36:54.397Z,73.23
2018-06-25T19:39:22.417Z,74.30
2018-06-25T19:41:50.417Z,74.70
2018-06-25T19:44:18.426Z,74.29
2018-06-25T19:46:46.429Z,74.99
2018-06-25T19:49:14.459Z,76.22
2018-06-25T19:51:42.534Z,76.64
2018-06-25T19:54:10.609Z,76.99
2018-06-25T19:56:39.711Z,77.02
2018-06-25T19:59:07.709Z,77.73
2018-06-25T20:01:35.827Z,76.87
2018-06-25T20:04:03.818Z,77.10
2018-06-25T20:06:31.833Z,76.58
2018-06-25T20:08:59.933Z,76.31
2018-06-25T20:11:28.005Z,77.33
2018-06-25T20:13:56.009Z,78.06
2018-06-25T20:16:24.009Z,78.92
2018-06-25T20:18:52.156Z,79.92
2018-06-25T20:21:20.160Z,79.01
2018-06-25T20:23:48.155Z,80.51
2018-06-25T20:26:16.220Z,79.91
2018-06-25T20:28:44.229Z,79.76
2018-06-25T20:31:12.270Z,79.36
2018-06-25T20:33:40.441Z,78.83
2018-06-25T20:36:08.452Z,78.97
2018-06-25T20:38:36.455Z,77.61
2018-06-25T20:41:04.496Z,77.42
2018-06-25T20:43:32.497Z,77.49
2018-06-25T20:46:00.639Z,77.85
2018-06-25T20:48:28.668Z,77.98
2018-06-25T20:50:56.737Z,77.43
2018-06-25T20:53:24.934Z,78.11
2018-06-25T20:55:52.821Z,77.38
2018-06-25T20:58:20.858Z,77.50
2018-06-25T21:00:48.912Z,78.17
2018-06-25T21:03:16.960Z,78.82
2018-06-25T21:05:44.972Z,78.30
2018-06-25T21:08:13.005Z,78.05
2018-06-25T21:10:41.005Z,79.47
2018-06-25T21:13:08.993Z,78.75
2018-06-25T21:15:36.981Z,79.96
2018-06-25T21:18:04.972Z,80.12
2018-06-25T21:20:32.994Z,78.80
2018-06-25T21:23:00.993Z,78.83
2018-06-25T21:25:29.154Z,78.20
2018-06-25T21:27:57.104Z,79.00
2018-06-25T21:30:25.306Z,77.78
2018-06-25T21:32:53.288Z,77.53
2018-06-25T21:35:21.288Z,77.27
2018-06-25T21:37:49.264Z,76.70
2018-06-25T21:40:17.267Z,77.53
2018-06-25T21:42:45.258Z,76.46
2018-06-25T21:45:13.253Z,76.44
2018-06-25T21:47:41.345Z,75.66
2018-06-25T21:50:09.350Z,76.84
2018-06-25T21:52:37.321Z,76.56
2018-06-25T21:55:05.534Z,77.07
2018-06-25T21:57:33.597Z,78.35
2018-06-25T22:00:01.604Z,77.75
2018-06-25T22:02:29.692Z,78.40
2018-06-25T22:04:57.714Z,78.36
2018-06-25T22:07:25.711Z,79.37
2018-06-25T22:09:53.713Z,79.86
2018-06-25T22:12:21.734Z,79.86
2018-06-25T22:14:49.717Z,79.38
2018-06-25T22:17:17.704Z,79.63
2018-06-25T22:19:45.792Z,80.35
2018-06-25T22:22:13.796Z,79.84
2018-06-25T22:24:41.795Z,80.46
2018-06-25T22:27:09.862Z,80.60
2018-06-25T22:29:37.867Z,80.16
2018-06-25T22:32:05.860Z,79.38
2018-06-25T22:34:33.954Z,79.39
2018-06-25T22:37:02.996Z,79.73
2018-06-25T22:39:31.018Z,79.64
2018-06-25T22:41:59.056Z,79.77
2018-06-25T22:44:27.067Z,79.40
2018-06-25T22:46:55.608Z,79.70
2018-06-25T22:49:23.603Z,80.15
2018-06-25T22:51:51.577Z,78.76
2018-06-25T22:54:19.577Z,79.65
2018-06-25T22:56:48.624Z,79.03
2018-06-25T22:59:16.632Z,79.57
2018-06-25T23:01:44.650Z,78.90
2018-06-25T23:04:12.635Z,79.33
2018-06-25T23:06:40.638Z,79.75
2018-06-25T23:09:09.829Z,80.35
2018-06-25T23:11:37.856Z,81.41
2018-06-25T23:14:05.833Z,80.46
2018-06-25T23:16:33.893Z,81.37
2018-06-25T23:19:01.924Z,81.24
2018-06-25T23:21:29.949Z,81.52
2018-06-25T23:23:57.952Z,80.87
2018-06-25T23:26:25.973Z,81.80
2018-06-25T23:28:54.076Z,81.14
2018-06-25T23:31:22.097Z,81.22
2018-06-25T23:33:50.107Z,81.95
2018-06-25T23:36:18.114Z,80.97
2018-06-25T23:38:46.197Z,80.85
2018-06-25T23:41:14.432Z,81.22
2018-06-25T23:43:42.460Z,82.03
2018-06-25T23:46:10.540Z,81.79
2018-06-25T23:48:38.587Z,81.07
2018-06-25T23:51:06.621Z,81.57
2018-06-25T23:53:34.616Z,81.79
2018-06-25T23:56:02.625Z,81.85
2018-06-25T23:58:30.724Z,81.45
